Hiawassee, Florida
Current Conditions -  °F | °C
As of 2:53 AM on Thursday 29 Jan 2015 (Local Time) from KORL Reporting Station
Clear Clear  
Wind Chill: 44°   Ceiling: Unl
Heat Index: 47°   Visibility: 10mi
Dew Point: 37°   Wind: 6mph
Humidity: 68%   Direction: 360°N
Pressure: 30.26"   Gusts: NA
Location:  28.5867°N, 81.4891°W
Report Text: KORL 290753Z AUTO 36005KT 10SM CLR 08/03 A3026 RMK AO2 SLP253 T00830028
Loading
Personal Weather Stations






























Interactive Weather Map New forecast layout! Learn more

10-Day Weather Forecast

Advertisements
Track Severe Weather on mobile